Time;durP1;ratioP1;P1;durP2;ratioP2;P2;SDS_P1;SDS_P2;PMS_P1;PMS_P2;Temp;Humidity;BMP_temperature;BMP_pressure;BME280_temperature;BME280_humidity;BME280_pressure;Samples;Min_cycle;Max_cycle;Signal;HPM_P1;HPM_P2
2023/07/21 00:01:23;;;;;;;22.90;13.97;;;26.70;93.70;;;;;;5041323;28;20206;-68
2023/07/21 00:03:50;;;;;;;23.07;13.83;;;26.70;93.90;;;;;;5049613;28;20258;-65
2023/07/21 00:06:19;;;;;;;20.93;13.87;;;26.60;94.00;;;;;;5038594;28;20215;-65
2023/07/21 00:08:46;;;;;;;19.27;13.93;;;26.60;94.20;;;;;;5040998;28;20967;-65
2023/07/21 00:11:13;;;;;;;19.60;13.80;;;26.60;94.40;;;;;;5046629;28;20532;-65
2023/07/21 00:13:40;;;;;;;19.43;13.43;;;26.60;94.40;;;;;;5041384;28;20675;-66
2023/07/21 00:16:07;;;;;;;20.70;13.37;;;26.60;94.70;;;;;;5040471;28;20281;-65
2023/07/21 00:18:35;;;;;;;18.63;13.10;;;26.60;94.30;;;;;;5042241;28;20191;-65
2023/07/21 00:21:05;;;;;;;16.73;12.97;;;26.60;94.20;;;;;;5044016;28;20259;-66
2023/07/21 00:23:32;;;;;;;26.67;13.23;;;26.60;94.20;;;;;;5045408;28;20211;-65
2023/07/21 00:26:00;;;;;;;24.43;14.60;;;26.60;94.30;;;;;;5043343;28;20238;-66
2023/07/21 00:28:31;;;;;;;21.13;13.77;;;26.50;94.20;;;;;;5047546;28;20280;-65
2023/07/21 00:30:58;;;;;;;20.70;13.17;;;26.60;94.20;;;;;;5047718;28;20199;-65
2023/07/21 00:33:25;;;;;;;18.53;12.70;;;26.60;94.20;;;;;;5045556;28;20205;-65
2023/07/21 00:35:57;;;;;;;16.90;12.63;;;26.60;94.20;;;;;;5044262;28;20284;-65
2023/07/21 00:38:25;;;;;;;23.97;12.70;;;26.60;94.10;;;;;;5043485;28;20233;-66
2023/07/21 00:40:52;;;;;;;20.90;12.77;;;26.60;94.00;;;;;;5045442;28;20218;-65
2023/07/21 00:43:19;;;;;;;15.93;12.20;;;26.60;94.00;;;;;;5043200;28;20210;-66
2023/07/21 00:45:47;;;;;;;17.17;11.47;;;26.60;93.90;;;;;;5040989;28;20218;-65
2023/07/21 00:48:16;;;;;;;16.93;12.17;;;26.60;93.80;;;;;;5051178;28;20202;-66
2023/07/21 00:50:49;;;;;;;15.00;12.50;;;26.60;93.70;;;;;;5044933;28;20195;-65
2023/07/21 00:53:17;;;;;;;15.73;11.50;;;26.50;93.70;;;;;;5040503;28;20629;-65
2023/07/21 00:55:47;;;;;;;18.30;12.90;;;26.50;93.80;;;;;;5045882;28;20233;-67
2023/07/21 00:58:16;;;;;;;17.40;12.93;;;26.50;93.80;;;;;;5042684;28;20662;-65
2023/07/21 01:00:44;;;;;;;19.60;13.27;;;26.50;93.80;;;;;;5041788;28;20210;-65
2023/07/21 01:03:13;;;;;;;18.73;13.10;;;26.50;93.80;;;;;;5045120;28;20207;-65
2023/07/21 01:05:43;;;;;;;20.90;12.40;;;26.40;93.80;;;;;;5044744;28;20211;-65
2023/07/21 01:08:11;;;;;;;16.03;11.23;;;26.40;93.70;;;;;;5046973;28;20198;-65
2023/07/21 01:10:40;;;;;;;17.90;12.43;;;26.40;93.70;;;;;;5041077;28;20203;-65
2023/07/21 01:13:09;;;;;;;14.90;11.90;;;26.40;93.60;;;;;;5040046;28;20303;-65
2023/07/21 01:15:43;;;;;;;17.40;12.47;;;26.30;93.60;;;;;;5041242;28;20202;-65
2023/07/21 01:18:14;;;;;;;15.57;11.97;;;26.30;93.70;;;;;;5041159;28;20214;-65
2023/07/21 01:20:43;;;;;;;16.73;11.93;;;26.20;93.70;;;;;;5038847;28;20222;-65
2023/07/21 01:23:16;;;;;;;18.33;12.47;;;26.20;93.70;;;;;;5040291;28;20203;-65
2023/07/21 01:25:44;;;;;;;17.07;11.50;;;26.20;93.70;;;;;;5041235;28;20244;-65
2023/07/21 01:28:13;;;;;;;18.67;11.67;;;26.10;93.70;;;;;;5046267;28;20202;-65
2023/07/21 01:30:45;;;;;;;15.20;11.87;;;26.10;93.70;;;;;;5039787;28;20694;-65
2023/07/21 01:33:17;;;;;;;16.10;10.67;;;26.10;93.80;;;;;;5041591;28;20213;-65
2023/07/21 01:35:50;;;;;;;19.37;12.00;;;26.00;93.70;;;;;;5045018;28;20540;-68
2023/07/21 01:38:19;;;;;;;19.90;12.47;;;26.00;93.70;;;;;;5041362;28;20197;-65
2023/07/21 01:40:47;;;;;;;19.83;10.80;;;26.00;93.60;;;;;;5042662;28;20228;-66
2023/07/21 01:43:15;;;;;;;17.30;10.63;;;25.90;93.50;;;;;;5043881;28;20262;-66
2023/07/21 01:45:43;;;;;;;13.13;9.53;;;25.90;93.50;;;;;;5045572;28;20230;-65
2023/07/21 01:48:10;;;;;;;18.80;10.97;;;25.90;93.40;;;;;;5044221;28;20222;-65
2023/07/21 01:50:41;;;;;;;13.40;10.07;;;25.80;93.20;;;;;;5038379;28;20640;-68
2023/07/21 01:53:13;;;;;;;18.73;10.67;;;25.80;93.10;;;;;;5041190;28;20557;-65
2023/07/21 01:55:55;;;;;;;17.30;11.40;;;25.80;93.10;;;;;;5045649;28;20291;-65
2023/07/21 01:58:25;;;;;;;17.80;10.00;;;25.80;93.10;;;;;;5043071;28;20227;-66
2023/07/21 02:00:55;;;;;;;15.77;9.30;;;25.80;93.00;;;;;;5045575;28;20212;-65
2023/07/21 02:03:23;;;;;;;15.83;9.87;;;25.70;92.80;;;;;;5039568;28;20202;-65
2023/07/21 02:05:51;;;;;;;16.70;10.17;;;25.70;92.80;;;;;;5041531;28;20222;-65
2023/07/21 02:08:20;;;;;;;13.20;9.77;;;25.60;92.80;;;;;;5037845;28;20203;-65
2023/07/21 02:10:48;;;;;;;18.50;10.20;;;25.60;92.80;;;;;;5042428;28;20658;-67
2023/07/21 02:13:36;;;;;;;18.90;9.63;;;25.60;92.80;;;;;;5041182;28;20643;-65
2023/07/21 02:16:03;;;;;;;15.47;9.43;;;25.60;92.90;;;;;;5039628;28;20210;-65
2023/07/21 02:18:33;;;;;;;14.93;9.53;;;25.60;92.90;;;;;;5039813;28;20731;-65
2023/07/21 02:21:04;;;;;;;15.33;10.30;;;25.50;92.90;;;;;;5048756;28;20249;-65
2023/07/21 02:23:31;;;;;;;18.43;11.47;;;25.50;92.90;;;;;;5042893;28;20203;-66
2023/07/21 02:25:59;;;;;;;13.17;10.37;;;25.50;93.00;;;;;;5039139;28;20691;-65
2023/07/21 02:28:26;;;;;;;19.13;11.30;;;25.40;93.10;;;;;;5040556;28;20195;-66
2023/07/21 02:31:04;;;;;;;12.90;9.93;;;25.40;93.30;;;;;;5035385;28;20211;-65
2023/07/21 02:33:34;;;;;;;18.77;11.47;;;25.40;93.40;;;;;;5043946;28;20195;-66
2023/07/21 02:36:05;;;;;;;15.60;10.97;;;25.40;93.50;;;;;;5049796;28;20568;-65
2023/07/21 02:38:32;;;;;;;15.40;11.70;;;25.40;93.60;;;;;;5054652;28;20206;-66
2023/07/21 02:41:04;;;;;;;23.50;13.80;;;25.40;93.70;;;;;;5048984;28;20232;-65
2023/07/21 02:43:32;;;;;;;16.83;9.97;;;25.40;93.80;;;;;;5050105;28;20199;-66
2023/07/21 02:46:00;;;;;;;12.10;10.70;;;25.40;93.80;;;;;;5047734;28;20228;-65
2023/07/21 02:48:28;;;;;;;12.43;11.13;;;25.40;93.80;;;;;;5047297;28;20215;-68
2023/07/21 02:50:55;;;;;;;15.90;10.17;;;25.40;93.80;;;;;;5045834;28;20641;-65
2023/07/21 02:53:22;;;;;;;15.80;10.93;;;25.40;93.80;;;;;;5044643;28;20709;-65
2023/07/21 02:55:57;;;;;;;21.43;12.40;;;25.40;93.70;;;;;;5049572;28;20597;-65
2023/07/21 02:58:27;;;;;;;22.00;13.13;;;25.40;93.70;;;;;;5051627;28;20233;-65
2023/07/21 03:00:55;;;;;;;18.47;13.63;;;25.40;93.90;;;;;;5048792;28;20198;-65
2023/07/21 03:03:32;;;;;;;23.63;13.93;;;25.40;94.10;;;;;;5048222;28;20230;-65
2023/07/21 03:06:07;;;;;;;28.80;15.00;;;25.40;94.50;;;;;;5055915;28;20544;-65
2023/07/21 03:08:35;;;;;;;24.53;16.57;;;25.30;94.80;;;;;;5046958;28;20261;-65
2023/07/21 03:11:07;;;;;;;21.00;15.87;;;25.30;95.30;;;;;;5050898;28;20212;-65
2023/07/21 03:13:46;;;;;;;23.57;16.30;;;25.30;95.70;;;;;;5040372;28;20197;-65
2023/07/21 03:16:15;;;;;;;19.20;15.97;;;25.30;96.20;;;;;;5055126;28;20214;-65
2023/07/21 03:18:50;;;;;;;24.17;15.80;;;25.30;96.30;;;;;;5052812;28;20632;-65
2023/07/21 03:21:19;;;;;;;21.97;16.23;;;25.30;96.30;;;;;;5051476;28;20254;-67
2023/07/21 03:23:48;;;;;;;26.13;16.70;;;25.30;96.50;;;;;;5051132;28;20207;-65
2023/07/21 03:26:21;;;;;;;24.73;17.03;;;25.30;96.70;;;;;;5060418;28;20238;-66
2023/07/21 03:28:50;;;;;;;23.17;16.57;;;25.30;96.90;;;;;;5046690;28;20597;-66
2023/07/21 03:31:20;;;;;;;20.57;14.93;;;25.40;97.00;;;;;;5046856;28;20718;-65
2023/07/21 03:33:54;;;;;;;21.40;14.93;;;25.40;97.20;;;;;;5046898;28;20198;-65
2023/07/21 03:36:25;;;;;;;23.00;15.57;;;25.40;97.20;;;;;;5054168;28;20203;-65
2023/07/21 03:38:52;;;;;;;21.77;14.63;;;25.50;97.20;;;;;;5045017;28;20658;-65
2023/07/21 03:41:20;;;;;;;19.40;14.50;;;25.50;97.10;;;;;;5046750;28;20506;-65
2023/07/21 03:43:49;;;;;;;22.43;14.13;;;25.60;97.10;;;;;;5047166;28;20266;-65
2023/07/21 03:46:18;;;;;;;20.93;13.10;;;25.60;97.00;;;;;;5051337;28;20211;-66
2023/07/21 03:49:03;;;;;;;19.07;12.73;;;25.60;96.80;;;;;;5045618;28;20210;-66
2023/07/21 03:51:32;;;;;;;19.20;10.60;;;25.60;96.70;;;;;;5049858;28;20268;-65
2023/07/21 03:53:59;;;;;;;15.57;11.27;;;25.60;96.40;;;;;;5048216;28;20221;-65
2023/07/21 03:56:27;;;;;;;16.70;10.57;;;25.60;96.20;;;;;;5046179;28;20659;-66
2023/07/21 03:58:55;;;;;;;14.03;10.23;;;25.60;96.00;;;;;;5046451;28;20677;-65
2023/07/21 04:01:24;;;;;;;12.50;9.37;;;25.60;95.90;;;;;;5044558;28;20510;-65
2023/07/21 04:03:51;;;;;;;16.40;9.40;;;25.60;95.90;;;;;;5037469;28;20205;-67
2023/07/21 04:06:20;;;;;;;12.30;9.70;;;25.60;95.80;;;;;;5042040;28;20226;-66
2023/07/21 04:08:47;;;;;;;11.50;9.33;;;25.60;95.70;;;;;;5041527;28;20527;-65
2023/07/21 04:11:14;;;;;;;11.10;8.73;;;25.60;95.60;;;;;;5043987;28;20532;-65
2023/07/21 04:13:41;;;;;;;9.47;7.97;;;25.60;95.50;;;;;;5042524;28;20219;-65
2023/07/21 04:16:08;;;;;;;11.37;8.07;;;25.60;95.40;;;;;;5040648;28;20218;-65
2023/07/21 04:18:36;;;;;;;12.73;8.13;;;25.60;95.30;;;;;;5043395;28;20204;-65
2023/07/21 04:21:03;;;;;;;12.03;7.90;;;25.60;95.40;;;;;;5042900;28;20544;-66
2023/07/21 04:23:30;;;;;;;10.80;8.47;;;25.70;95.00;;;;;;5043433;28;20211;-68
2023/07/21 04:25:58;;;;;;;10.53;7.63;;;25.70;94.90;;;;;;5048252;28;20695;-65
2023/07/21 04:28:25;;;;;;;9.87;7.87;;;25.70;94.80;;;;;;5049130;28;20241;-66
2023/07/21 04:30:53;;;;;;;14.83;9.07;;;25.70;94.70;;;;;;5047782;28;20374;-65
2023/07/21 04:33:21;;;;;;;12.30;9.07;;;25.70;94.70;;;;;;5047741;28;20597;-65
2023/07/21 04:35:48;;;;;;;12.53;8.10;;;25.80;94.80;;;;;;5047599;28;20714;-68
2023/07/21 04:38:25;;;;;;;18.93;9.73;;;25.80;94.90;;;;;;5043042;28;20295;-65
2023/07/21 04:41:06;;;;;;;12.83;9.57;;;25.80;94.90;;;;;;5044929;28;20527;-66
2023/07/21 04:43:35;;;;;;;15.67;10.73;;;25.90;94.90;;;;;;5044473;28;20268;-66
2023/07/21 04:46:03;;;;;;;12.50;10.27;;;26.00;95.00;;;;;;5045437;28;20315;-65
2023/07/21 04:48:36;;;;;;;14.63;10.87;;;26.10;95.00;;;;;;5046952;28;20213;-65
2023/07/21 04:51:04;;;;;;;14.97;11.23;;;26.10;95.10;;;;;;5047930;28;20213;-65
2023/07/21 04:53:31;;;;;;;16.17;11.60;;;26.20;95.10;;;;;;5046681;28;20282;-70
2023/07/21 04:55:59;;;;;;;14.53;11.00;;;26.30;95.10;;;;;;5038641;28;20205;-65
2023/07/21 04:58:30;;;;;;;14.37;12.13;;;26.40;95.20;;;;;;5043035;28;20207;-66
2023/07/21 05:00:58;;;;;;;18.67;13.37;;;26.40;95.10;;;;;;5047603;28;20209;-65
2023/07/21 05:03:26;;;;;;;14.10;11.93;;;26.50;95.10;;;;;;5040112;28;20199;-65
2023/07/21 05:05:53;;;;;;;15.17;11.80;;;26.50;94.90;;;;;;5044496;28;20282;-66
2023/07/21 05:08:22;;;;;;;16.30;12.60;;;26.60;94.70;;;;;;5042357;28;20206;-66
2023/07/21 05:10:53;;;;;;;20.13;11.00;;;26.60;94.50;;;;;;5045568;28;20225;-65
2023/07/21 05:13:20;;;;;;;11.43;8.20;;;26.50;94.40;;;;;;5043003;28;20719;-65
2023/07/21 05:16:14;;;;;;;11.27;7.40;;;26.50;94.20;;;;;;5045071;28;20238;-65
2023/07/21 05:19:00;;;;;;;15.23;8.70;;;26.50;93.60;;;;;;5039549;28;20703;-65
2023/07/21 05:21:46;;;;;;;19.53;13.07;;;26.40;93.20;;;;;;5042353;28;20294;-65
2023/07/21 05:24:36;;;;;;;22.47;12.77;;;26.30;93.40;;;;;;5045634;28;20207;-65
2023/07/21 05:27:06;;;;;;;21.47;14.37;;;26.20;93.70;;;;;;5044179;28;20247;-65
2023/07/21 05:29:43;;;;;;;23.43;14.77;;;26.10;93.90;;;;;;5039786;28;20198;-65
2023/07/21 05:32:12;;;;;;;25.37;14.40;;;26.10;94.10;;;;;;5049451;28;20209;-65
2023/07/21 05:34:39;;;;;;;21.30;14.63;;;26.10;94.30;;;;;;5041329;28;20218;-65
2023/07/21 05:37:07;;;;;;;22.97;14.40;;;26.10;94.30;;;;;;5048487;28;20554;-72
2023/07/21 05:39:35;;;;;;;16.00;11.80;;;26.10;94.50;;;;;;5037814;28;20208;-66
2023/07/21 05:42:03;;;;;;;14.53;10.57;;;26.10;94.60;;;;;;5039998;28;20203;-66
2023/07/21 05:44:34;;;;;;;14.27;9.13;;;26.20;94.60;;;;;;5041725;28;20217;-65
2023/07/21 05:47:02;;;;;;;12.63;9.13;;;26.20;94.20;;;;;;5042258;28;20230;-66
2023/07/21 05:49:30;;;;;;;11.47;9.17;;;26.20;94.00;;;;;;5042973;28;20300;-65
2023/07/21 05:51:58;;;;;;;19.33;11.17;;;26.30;94.00;;;;;;5043449;28;20220;-65
2023/07/21 05:54:33;;;;;;;23.30;12.40;;;26.40;94.00;;;;;;5042977;28;20223;-65
2023/07/21 05:57:00;;;;;;;17.57;13.23;;;26.40;93.90;;;;;;5042873;28;20222;-65
2023/07/21 05:59:34;;;;;;;28.67;16.20;;;26.50;93.90;;;;;;5049127;28;20304;-65
2023/07/21 06:02:02;;;;;;;21.00;15.77;;;26.60;94.00;;;;;;5029137;28;20296;-65
2023/07/21 06:04:34;;;;;;;20.33;15.63;;;26.70;94.00;;;;;;5042978;28;20534;-65
2023/07/21 06:07:20;;;;;;;18.83;15.67;;;26.80;94.00;;;;;;5035690;28;20276;-65
2023/07/21 06:10:11;;;;;;;19.33;15.07;;;26.90;93.90;;;;;;5042955;28;20225;-67
2023/07/21 06:13:16;;;;;;;21.27;15.07;;;26.90;93.90;;;;;;5034082;28;20210;-65
2023/07/21 06:15:57;;;;;;;20.50;15.37;;;27.10;93.80;;;;;;5040445;28;20198;-66
2023/07/21 06:18:35;;;;;;;24.43;14.90;;;27.20;93.70;;;;;;5040790;28;20206;-64
2023/07/21 06:21:03;;;;;;;19.33;14.27;;;27.30;93.30;;;;;;5047001;28;20206;-65
2023/07/21 06:23:30;;;;;;;21.07;14.43;;;27.40;93.10;;;;;;5035744;28;20224;-66
2023/07/21 06:25:57;;;;;;;18.47;15.23;;;27.60;93.00;;;;;;5041731;28;20243;-65
2023/07/21 06:28:25;;;;;;;19.97;14.90;;;27.80;92.90;;;;;;5039542;28;20314;-65
2023/07/21 06:30:52;;;;;;;21.27;15.40;;;28.00;92.80;;;;;;5046768;28;20210;-65
2023/07/21 06:33:38;;;;;;;20.63;15.37;;;28.20;92.40;;;;;;5039597;28;20652;-65
2023/07/21 06:36:41;;;;;;;20.33;13.90;;;28.40;92.20;;;;;;5065935;28;20237;-65
2023/07/21 06:39:30;;;;;;;19.80;12.93;;;28.50;91.50;;;;;;5046705;28;20277;-66
2023/07/21 06:42:04;;;;;;;17.23;11.73;;;28.60;91.00;;;;;;5043095;28;20209;-65
2023/07/21 06:44:37;;;;;;;10.87;8.90;;;28.70;90.40;;;;;;5045862;28;20232;-66
2023/07/21 06:47:43;;;;;;;9.93;6.77;;;28.80;90.00;;;;;;5046909;28;20210;-65
2023/07/21 06:50:18;;;;;;;13.93;8.47;;;28.80;88.90;;;;;;5042477;28;20214;-65
2023/07/21 06:52:50;;;;;;;13.63;7.90;;;28.90;88.70;;;;;;5038723;28;20698;-65
2023/07/21 06:55:21;;;;;;;17.20;8.77;;;29.00;88.30;;;;;;5041969;28;20211;-65
2023/07/21 06:57:48;;;;;;;10.87;7.20;;;29.10;88.30;;;;;;5040765;28;20198;-65
2023/07/21 07:00:16;;;;;;;13.73;7.67;;;29.20;88.40;;;;;;5041907;28;20211;-65
2023/07/21 07:02:49;;;;;;;13.33;8.30;;;29.20;88.10;;;;;;5036550;28;20200;-64
2023/07/21 07:05:17;;;;;;;16.97;9.53;;;29.40;87.70;;;;;;5042792;28;20195;-65
2023/07/21 07:07:44;;;;;;;15.67;8.80;;;29.40;87.10;;;;;;5043921;28;20259;-64
2023/07/21 07:10:11;;;;;;;14.20;9.00;;;29.50;86.80;;;;;;5038799;28;20525;-65
2023/07/21 07:12:38;;;;;;;11.17;8.77;;;29.60;86.80;;;;;;5042778;28;20203;-67
2023/07/21 07:15:06;;;;;;;13.60;8.40;;;29.60;86.80;;;;;;5035906;28;20191;-66
2023/07/21 07:17:33;;;;;;;11.27;7.17;;;29.80;87.30;;;;;;5034343;28;20226;-65
2023/07/21 07:20:01;;;;;;;12.50;8.30;;;29.90;86.60;;;;;;5043161;28;20287;-66
2023/07/21 07:22:28;;;;;;;11.30;8.57;;;30.00;86.20;;;;;;5046373;28;20224;-69
2023/07/21 07:24:55;;;;;;;12.33;7.43;;;30.10;85.60;;;;;;5046872;28;20557;-65
2023/07/21 07:27:22;;;;;;;11.97;7.60;;;30.10;85.70;;;;;;5039184;28;20293;-65
2023/07/21 07:29:49;;;;;;;11.77;8.90;;;30.30;86.20;;;;;;5037944;28;20203;-65
2023/07/21 07:32:17;;;;;;;10.70;7.40;;;30.50;85.60;;;;;;5043804;28;20200;-65
2023/07/21 07:34:44;;;;;;;13.70;9.80;;;30.50;84.30;;;;;;5045292;28;20202;-64
2023/07/21 07:37:11;;;;;;;12.30;9.00;;;30.60;83.90;;;;;;5047804;28;20206;-66
2023/07/21 07:39:38;;;;;;;13.37;8.37;;;30.60;83.10;;;;;;5038743;28;20274;-65
2023/07/21 07:42:05;;;;;;;13.23;7.90;;;30.50;84.10;;;;;;5041854;28;20533;-65
2023/07/21 07:44:34;;;;;;;9.97;7.77;;;30.50;84.30;;;;;;5044618;28;20203;-66
2023/07/21 07:47:01;;;;;;;14.03;8.40;;;30.70;84.80;;;;;;5043064;28;20218;-65
2023/07/21 07:49:29;;;;;;;14.10;9.77;;;30.80;82.60;;;;;;5043852;28;20206;-65
2023/07/21 07:51:56;;;;;;;12.67;9.40;;;30.80;82.70;;;;;;5042407;28;20214;-65
2023/07/21 07:54:22;;;;;;;16.10;9.47;;;30.80;82.60;;;;;;5043050;28;20199;-68
2023/07/21 07:56:51;;;;;;;12.77;9.27;;;30.80;82.90;;;;;;5043805;28;20778;-65
2023/07/21 07:59:18;;;;;;;9.73;7.63;;;30.90;83.10;;;;;;5043880;28;20214;-65
2023/07/21 08:01:45;;;;;;;18.03;9.90;;;31.00;83.20;;;;;;5044253;28;20275;-65
2023/07/21 08:04:12;;;;;;;12.03;9.87;;;31.20;81.60;;;;;;5041113;28;20265;-65
2023/07/21 08:06:40;;;;;;;13.60;9.00;;;31.30;80.20;;;;;;5038421;28;20221;-65
2023/07/21 08:09:09;;;;;;;15.47;8.97;;;31.30;80.40;;;;;;5042546;28;20194;-65
2023/07/21 08:11:37;;;;;;;10.83;7.83;;;31.30;79.00;;;;;;5043921;28;20192;-66
2023/07/21 08:14:05;;;;;;;12.27;7.33;;;31.30;79.40;;;;;;5045842;28;20883;-65
2023/07/21 08:16:32;;;;;;;13.57;8.67;;;31.30;78.60;;;;;;5037880;28;20278;-65
2023/07/21 08:18:59;;;;;;;14.03;7.43;;;31.40;78.10;;;;;;5041023;28;20582;-67
2023/07/21 08:21:27;;;;;;;12.17;7.43;;;31.50;78.50;;;;;;5045506;28;20218;-65
2023/07/21 08:23:56;;;;;;;12.27;7.77;;;31.70;78.00;;;;;;5044241;28;20203;-67
2023/07/21 08:26:22;;;;;;;16.00;9.53;;;31.90;77.80;;;;;;5039696;28;20235;-65
2023/07/21 08:28:52;;;;;;;16.57;7.60;;;32.10;76.80;;;;;;5037779;28;20457;-65
2023/07/21 08:31:20;;;;;;;9.97;7.27;;;32.30;75.70;;;;;;5042278;28;20203;-65
2023/07/21 08:33:49;;;;;;;11.97;8.67;;;32.40;75.60;;;;;;5042952;28;20214;-67
2023/07/21 08:36:16;;;;;;;12.23;8.50;;;32.50;75.00;;;;;;5044511;28;20639;-65
2023/07/21 08:38:43;;;;;;;10.47;8.70;;;32.40;75.10;;;;;;5039703;28;20203;-65
2023/07/21 08:41:16;;;;;;;11.83;8.30;;;32.50;74.90;;;;;;5048299;28;20215;-66
2023/07/21 08:43:45;;;;;;;8.80;7.63;;;32.40;75.20;;;;;;5039582;28;20623;-65
2023/07/21 08:46:12;;;;;;;13.23;7.80;;;32.50;74.70;;;;;;5042897;28;20261;-66
2023/07/21 08:48:40;;;;;;;10.10;8.10;;;32.50;74.80;;;;;;5045081;28;20210;-66
2023/07/21 08:51:08;;;;;;;14.60;8.60;;;32.60;75.00;;;;;;5042977;28;20198;-65
2023/07/21 08:53:34;;;;;;;10.17;8.00;;;32.70;74.20;;;;;;5053176;28;20202;-65
2023/07/21 08:56:02;;;;;;;11.60;7.80;;;32.80;74.20;;;;;;5047232;28;20199;-65
2023/07/21 08:58:29;;;;;;;14.23;7.53;;;32.90;73.80;;;;;;5042706;28;20282;-66
2023/07/21 09:00:57;;;;;;;7.17;6.50;;;32.90;73.70;;;;;;5040890;28;20199;-66
2023/07/21 09:03:30;;;;;;;12.20;8.20;;;33.00;74.60;;;;;;5047653;28;20621;-66
2023/07/21 09:05:59;;;;;;;17.00;8.43;;;33.10;73.60;;;;;;5039922;28;20225;-65
2023/07/21 09:08:29;;;;;;;13.53;7.90;;;33.10;72.60;;;;;;5040433;28;20199;-67
2023/07/21 09:11:00;;;;;;;14.87;9.10;;;33.20;73.20;;;;;;5042671;28;20202;-65
2023/07/21 09:13:29;;;;;;;14.87;8.03;;;33.10;71.90;;;;;;5039683;28;20219;-65
2023/07/21 09:15:58;;;;;;;14.93;8.13;;;33.10;73.00;;;;;;5039471;28;20598;-65
2023/07/21 09:18:31;;;;;;;10.33;8.17;;;33.10;73.00;;;;;;5038757;28;20552;-65
2023/07/21 09:20:58;;;;;;;9.07;6.57;;;33.20;72.60;;;;;;5042664;28;20285;-70
2023/07/21 09:23:29;;;;;;;12.20;7.73;;;33.30;73.10;;;;;;5045491;28;20195;-66
2023/07/21 09:26:01;;;;;;;8.43;7.27;;;33.50;73.60;;;;;;5043597;28;20558;-65
2023/07/21 09:28:39;;;;;;;12.77;7.60;;;33.70;73.20;;;;;;5037624;28;20543;-65
2023/07/21 09:31:07;;;;;;;11.63;7.33;;;34.00;72.00;;;;;;5038903;28;20199;-66
2023/07/21 09:33:41;;;;;;;8.50;7.37;;;34.10;70.20;;;;;;5043917;28;20198;-65
2023/07/21 09:36:14;;;;;;;10.57;7.10;;;34.20;70.50;;;;;;5043244;28;20202;-65
2023/07/21 09:38:44;;;;;;;9.37;6.47;;;34.20;69.20;;;;;;5039390;28;20268;-66
2023/07/21 09:41:15;;;;;;;20.43;7.93;;;34.20;68.40;;;;;;5038624;28;20211;-66
2023/07/21 09:43:43;;;;;;;8.50;6.90;;;34.20;68.40;;;;;;5039779;28;20191;-65
2023/07/21 09:46:10;;;;;;;12.47;7.17;;;34.30;66.90;;;;;;5041947;28;20268;-66
2023/07/21 09:48:41;;;;;;;12.13;7.60;;;34.50;66.00;;;;;;5046353;28;20194;-66
2023/07/21 09:51:11;;;;;;;11.07;8.02;;;34.50;65.70;;;;;;5036774;28;20199;-66
2023/07/21 09:53:43;;;;;;;14.53;7.70;;;34.50;65.40;;;;;;5038358;28;20199;-65
2023/07/21 09:56:12;;;;;;;12.13;7.47;;;34.40;66.40;;;;;;5039220;28;20207;-65
2023/07/21 09:58:59;;;;;;;15.25;7.43;;;34.40;66.30;;;;;;5043008;28;20628;-65
2023/07/21 10:01:31;;;;;;;7.93;6.93;;;34.50;67.70;;;;;;5038693;28;20234;-65
2023/07/21 10:03:59;;;;;;;11.32;7.15;;;34.60;65.60;;;;;;5042484;28;20232;-65
2023/07/21 10:06:32;;;;;;;10.63;6.43;;;34.50;64.70;;;;;;5043357;28;20215;-66
2023/07/21 10:09:01;;;;;;;11.00;7.40;;;34.40;65.80;;;;;;5046614;28;20203;-65
2023/07/21 10:11:28;;;;;;;11.83;7.00;;;34.20;65.10;;;;;;5037384;28;20286;-65
2023/07/21 10:13:55;;;;;;;13.23;7.18;;;34.20;65.70;;;;;;5040602;28;20253;-65
2023/07/21 10:16:23;;;;;;;14.57;6.67;;;34.30;66.80;;;;;;5036113;28;20520;-66
2023/07/21 10:19:07;;;;;;;9.07;6.70;;;34.50;65.20;;;;;;5035128;28;20210;-65
2023/07/21 10:21:52;;;;;;;13.10;7.30;;;34.50;65.00;;;;;;5043269;28;20203;-66
2023/07/21 10:24:27;;;;;;;9.17;6.73;;;34.50;64.30;;;;;;5042976;28;20194;-65
2023/07/21 10:27:00;;;;;;;13.13;6.80;;;34.60;65.10;;;;;;5041731;28;20246;-66
2023/07/21 10:29:28;;;;;;;9.70;7.07;;;34.50;63.90;;;;;;5038644;28;20614;-66
2023/07/21 10:31:57;;;;;;;10.47;7.30;;;34.50;63.80;;;;;;5039418;28;20199;-66
2023/07/21 10:34:26;;;;;;;14.13;7.73;;;34.30;63.30;;;;;;5040142;28;20203;-65
2023/07/21 10:36:53;;;;;;;16.37;6.67;;;34.20;63.60;;;;;;5038433;28;20205;-66
2023/07/21 10:39:23;;;;;;;17.93;7.03;;;34.00;63.90;;;;;;5040896;28;20213;-66
2023/07/21 10:41:58;;;;;;;11.37;6.73;;;33.80;64.80;;;;;;5037786;28;20206;-65
2023/07/21 10:44:46;;;;;;;9.67;6.93;;;33.70;65.50;;;;;;5039787;28;20202;-65
2023/07/21 10:47:15;;;;;;;9.93;6.80;;;33.60;64.90;;;;;;5038542;28;20269;-65
2023/07/21 10:49:47;;;;;;;10.83;7.40;;;33.50;65.90;;;;;;5040822;28;20202;-65
2023/07/21 10:52:15;;;;;;;11.03;7.10;;;33.40;64.80;;;;;;5034661;28;20225;-65
2023/07/21 10:54:43;;;;;;;13.33;6.73;;;33.30;65.60;;;;;;5039408;28;20282;-65
2023/07/21 10:57:12;;;;;;;11.47;7.00;;;33.30;65.80;;;;;;5045116;28;20206;-66
2023/07/21 10:59:39;;;;;;;10.43;6.53;;;33.10;66.30;;;;;;5040302;28;20199;-65
2023/07/21 11:02:07;;;;;;;13.37;7.23;;;33.10;66.80;;;;;;5051415;28;20234;-66
2023/07/21 11:04:40;;;;;;;8.57;6.20;;;33.10;67.30;;;;;;5047348;28;20227;-66
2023/07/21 11:07:08;;;;;;;10.40;6.53;;;33.30;66.00;;;;;;5047065;28;20207;-65
2023/07/21 11:09:43;;;;;;;12.60;7.50;;;33.60;66.40;;;;;;5048954;28;20199;-65
2023/07/21 11:12:11;;;;;;;9.07;6.20;;;33.80;66.70;;;;;;5042629;28;20206;-66
2023/07/21 11:14:39;;;;;;;11.00;6.30;;;34.00;65.90;;;;;;5043041;28;20211;-66
2023/07/21 11:17:06;;;;;;;9.63;6.53;;;34.20;64.60;;;;;;5040596;28;20693;-66
2023/07/21 11:19:34;;;;;;;18.67;7.45;;;34.50;63.40;;;;;;5039386;28;20246;-66
2023/07/21 11:22:04;;;;;;;8.27;6.00;;;34.50;61.90;;;;;;5044639;28;20648;-65
2023/07/21 11:24:32;;;;;;;11.40;7.07;;;34.40;61.70;;;;;;5045066;28;20348;-66
2023/07/21 11:27:09;;;;;;;10.27;6.60;;;34.30;62.60;;;;;;5037864;28;20684;-66
2023/07/21 11:29:42;;;;;;;10.87;6.70;;;34.20;64.10;;;;;;5038760;28;20286;-66
2023/07/21 11:32:22;;;;;;;14.83;6.30;;;34.20;64.20;;;;;;5042556;28;20564;-66
2023/07/21 11:34:57;;;;;;;10.20;6.40;;;34.20;63.00;;;;;;5044879;28;20191;-66
2023/07/21 11:37:34;;;;;;;8.30;6.40;;;34.40;63.40;;;;;;5046007;28;20233;-65
2023/07/21 11:40:15;;;;;;;8.47;6.10;;;34.60;64.00;;;;;;5040715;28;20198;-66
2023/07/21 11:42:45;;;;;;;11.07;6.10;;;34.80;64.50;;;;;;5048356;28;20198;-66
2023/07/21 11:45:35;;;;;;;10.13;6.10;;;35.00;63.50;;;;;;5043342;28;20203;-65
2023/07/21 11:48:19;;;;;;;8.20;4.80;;;34.90;65.20;;;;;;5044769;28;20215;-68
2023/07/21 11:50:51;;;;;;;10.68;5.65;;;34.70;66.70;;;;;;5042683;28;20207;-66
2023/07/21 11:53:19;;;;;;;8.50;5.43;;;34.40;67.30;;;;;;5041107;28;20570;-66
2023/07/21 11:55:46;;;;;;;7.88;5.10;;;34.20;67.70;;;;;;5042379;28;20486;-65
2023/07/21 11:58:13;;;;;;;14.18;5.78;;;34.10;68.40;;;;;;5043672;28;20210;-66
2023/07/21 12:00:42;;;;;;;9.93;5.73;;;34.30;68.60;;;;;;5042133;28;20652;-66
2023/07/21 12:03:12;;;;;;;9.17;5.40;;;34.50;68.60;;;;;;5043002;28;20629;-68
2023/07/21 12:05:39;;;;;;;8.67;4.63;;;34.70;67.60;;;;;;5042429;28;20594;-66
2023/07/21 12:08:06;;;;;;;9.37;5.07;;;34.80;66.70;;;;;;5040053;28;20218;-66
2023/07/21 12:10:34;;;;;;;7.63;4.55;;;35.00;66.30;;;;;;5044788;28;20205;-66
2023/07/21 12:13:03;;;;;;;7.68;5.10;;;35.10;66.30;;;;;;5045928;28;20239;-66
2023/07/21 12:15:31;;;;;;;13.23;5.25;;;35.30;66.50;;;;;;5044195;28;20266;-66
2023/07/21 12:17:59;;;;;;;11.55;4.63;;;35.30;64.50;;;;;;5043057;28;20235;-65
2023/07/21 12:20:26;;;;;;;5.82;3.95;;;35.10;65.80;;;;;;5050080;28;20595;-65
2023/07/21 12:22:53;;;;;;;9.13;4.40;;;34.70;61.00;;;;;;5042087;28;20206;-66
2023/07/21 12:25:20;;;;;;;7.50;3.83;;;33.90;60.50;;;;;;5042442;28;20199;-65
2023/07/21 12:27:50;;;;;;;11.47;3.10;;;33.10;63.00;;;;;;5041223;28;20620;-65
2023/07/21 12:30:17;;;;;;;6.80;1.73;;;32.40;61.50;;;;;;5040979;28;20221;-65
2023/07/21 12:32:45;;;;;;;5.27;2.00;;;31.40;62.00;;;;;;5041603;28;20193;-65
2023/07/21 12:35:13;;;;;;;9.40;2.07;;;30.60;64.50;;;;;;5043934;28;20199;-64
2023/07/21 12:37:40;;;;;;;8.80;2.40;;;29.90;67.30;;;;;;5050192;28;20191;-65
2023/07/21 12:40:15;;;;;;;4.20;2.50;;;29.50;68.80;;;;;;5042152;28;20546;-64
2023/07/21 12:42:42;;;;;;;5.80;2.30;;;29.20;70.00;;;;;;5045625;28;20273;-65
2023/07/21 12:45:10;;;;;;;4.63;2.07;;;29.20;70.80;;;;;;5044683;28;20272;-65
2023/07/21 12:47:38;;;;;;;4.23;2.37;;;29.20;72.60;;;;;;5044000;28;20273;-65
2023/07/21 12:50:06;;;;;;;3.00;2.20;;;29.20;72.30;;;;;;5044249;28;20209;-65